sensor_id;sensor_type;location;lat;lon;timestamp;pressure;altitude;pressure_sealevel;temperature;humidity
48792;BME280;34587;48.816;9.420;2023-05-03T04:16:24;99612.72;;;5.96;100.00
48792;BME280;34587;48.816;9.420;2023-05-03T04:18:49;99622.16;;;5.96;100.00
48792;BME280;34587;48.816;9.420;2023-05-03T04:21:15;99618.78;;;6.00;100.00
48792;BME280;34587;48.816;9.420;2023-05-03T04:23:40;99622.94;;;5.91;100.00
48792;BME280;34587;48.816;9.420;2023-05-03T04:26:05;99621.22;;;5.92;100.00
48792;BME280;34587;48.816;9.420;2023-05-03T04:28:32;99617.81;;;5.91;100.00
48792;BME280;34587;48.816;9.420;2023-05-03T04:30:57;99623.94;;;6.03;100.00
48792;BME280;34587;48.816;9.420;2023-05-03T04:33:24;99624.84;;;6.05;100.00
48792;BME280;34587;48.816;9.420;2023-05-03T04:35:50;99628.31;;;6.08;100.00
48792;BME280;34587;48.816;9.420;2023-05-03T04:38:16;99633.63;;;6.21;100.00
48792;BME280;34587;48.816;9.420;2023-05-03T04:40:41;99639.69;;;6.24;100.00
48792;BME280;34587;48.816;9.420;2023-05-03T04:43:07;99640.69;;;6.34;100.00
48792;BME280;34587;48.816;9.420;2023-05-03T04:45:32;99640.81;;;6.46;100.00
48792;BME280;34587;48.816;9.420;2023-05-03T04:47:58;99645.97;;;6.48;100.00
48792;BME280;34587;48.816;9.420;2023-05-03T04:50:23;99644.38;;;6.56;100.00
48792;BME280;34587;48.816;9.420;2023-05-03T04:52:49;99653.97;;;6.69;100.00
48792;BME280;34587;48.816;9.420;2023-05-03T04:55:14;99647.22;;;6.77;100.00
48792;BME280;34587;48.816;9.420;2023-05-03T04:57:41;99650.59;;;6.73;100.00
48792;BME280;34587;48.816;9.420;2023-05-03T05:00:07;99643.84;;;6.84;100.00
48792;BME280;34587;48.816;9.420;2023-05-03T05:02:36;99644.81;;;6.95;100.00
48792;BME280;34587;48.816;9.420;2023-05-03T05:05:01;99642.22;;;6.95;99.96
48792;BME280;34587;48.816;9.420;2023-05-03T05:07:27;99637.22;;;7.08;99.05
48792;BME280;34587;48.816;9.420;2023-05-03T05:09:52;99639.94;;;7.25;99.25
48792;BME280;34587;48.816;9.420;2023-05-03T05:12:17;99630.56;;;7.31;98.76
48792;BME280;34587;48.816;9.420;2023-05-03T05:14:43;99635.84;;;7.46;97.26
48792;BME280;34587;48.816;9.420;2023-05-03T05:17:08;99639.38;;;7.55;96.48
48792;BME280;34587;48.816;9.420;2023-05-03T05:19:34;99639.44;;;7.67;95.97
48792;BME280;34587;48.816;9.420;2023-05-03T05:21:59;99636.88;;;7.67;94.99
48792;BME280;34587;48.816;9.420;2023-05-03T05:24:25;99643.84;;;7.80;94.75
48792;BME280;34587;48.816;9.420;2023-05-03T05:26:50;99640.53;;;7.99;93.28
48792;BME280;34587;48.816;9.420;2023-05-03T05:29:15;99650.09;;;8.13;92.65
48792;BME280;34587;48.816;9.420;2023-05-03T05:31:41;99639.78;;;8.13;91.19
48792;BME280;34587;48.816;9.420;2023-05-03T05:34:06;99644.22;;;8.37;90.56
48792;BME280;34587;48.816;9.420;2023-05-03T05:36:31;99644.28;;;8.55;89.06
48792;BME280;34587;48.816;9.420;2023-05-03T05:38:57;99636.56;;;8.60;88.56
48792;BME280;34587;48.816;9.420;2023-05-03T05:41:22;99640.06;;;8.71;87.80
48792;BME280;34587;48.816;9.420;2023-05-03T05:43:48;99637.50;;;8.82;88.29
48792;BME280;34587;48.816;9.420;2023-05-03T05:46:13;99636.69;;;9.02;87.56
48792;BME280;34587;48.816;9.420;2023-05-03T05:48:40;99636.72;;;9.15;86.52
48792;BME280;34587;48.816;9.420;2023-05-03T05:51:06;99635.00;;;9.14;86.39
48792;BME280;34587;48.816;9.420;2023-05-03T05:53:32;99643.63;;;9.16;85.38
48792;BME280;34587;48.816;9.420;2023-05-03T05:55:57;99637.59;;;9.23;85.76
48792;BME280;34587;48.816;9.420;2023-05-03T05:58:22;99635.00;;;9.14;86.40
48792;BME280;34587;48.816;9.420;2023-05-03T06:00:48;99632.44;;;9.29;86.18
48792;BME280;34587;48.816;9.420;2023-05-03T06:03:14;99635.88;;;9.40;86.41
48792;BME280;34587;48.816;9.420;2023-05-03T06:05:40;99629.88;;;9.63;84.73
48792;BME280;34587;48.816;9.420;2023-05-03T06:08:05;99632.44;;;9.64;84.61
48792;BME280;34587;48.816;9.420;2023-05-03T06:10:31;99633.31;;;9.77;84.18
48792;BME280;34587;48.816;9.420;2023-05-03T06:12:56;99632.44;;;9.72;83.33
48792;BME280;34587;48.816;9.420;2023-05-03T06:15:21;99631.56;;;9.67;83.73
48792;BME280;34587;48.816;9.420;2023-05-03T06:17:47;99632.44;;;9.63;83.69
48792;BME280;34587;48.816;9.420;2023-05-03T06:20:12;99628.97;;;9.70;84.12
48792;BME280;34587;48.816;9.420;2023-05-03T06:22:37;99627.25;;;9.84;82.68
48792;BME280;34587;48.816;9.420;2023-05-03T06:25:03;99628.06;;;10.08;82.02
48792;BME280;34587;48.816;9.420;2023-05-03T06:27:28;99629.78;;;10.05;81.67
48792;BME280;34587;48.816;9.420;2023-05-03T06:29:54;99626.31;;;10.13;82.61
48792;BME280;34587;48.816;9.420;2023-05-03T06:32:19;99626.31;;;10.31;80.38
48792;BME280;34587;48.816;9.420;2023-05-03T06:34:47;99624.59;;;10.27;80.81
48792;BME280;34587;48.816;9.420;2023-05-03T06:37:12;99626.97;;;10.84;78.93
48792;BME280;34587;48.816;9.420;2023-05-03T06:39:38;99624.25;;;10.97;77.49
48792;BME280;34587;48.816;9.420;2023-05-03T06:42:03;99618.84;;;11.34;76.38
48792;BME280;34587;48.816;9.420;2023-05-03T06:44:28;99614.13;;;11.77;74.63
48792;BME280;34587;48.816;9.420;2023-05-03T06:46:54;99612.97;;;12.11;72.67
48792;BME280;34587;48.816;9.420;2023-05-03T06:49:19;99604.94;;;12.98;68.96
48792;BME280;34587;48.816;9.420;2023-05-03T06:51:46;99606.25;;;14.26;64.53
48792;BME280;34587;48.816;9.420;2023-05-03T06:54:11;99595.13;;;16.67;55.98
48792;BME280;34587;48.816;9.420;2023-05-03T06:56:36;99598.72;;;18.74;50.37
48792;BME280;34587;48.816;9.420;2023-05-03T06:59:02;99599.03;;;17.13;52.69
48792;BME280;34587;48.816;9.420;2023-05-03T07:01:28;99600.09;;;17.61;51.84
48792;BME280;34587;48.816;9.420;2023-05-03T07:03:54;99603.53;;;18.61;48.67
48792;BME280;34587;48.816;9.420;2023-05-03T07:06:19;99598.13;;;19.55;46.15
48792;BME280;34587;48.816;9.420;2023-05-03T07:08:47;99599.53;;;19.42;46.06
48792;BME280;34587;48.816;9.420;2023-05-03T07:11:12;99597.00;;;20.03;44.55
48792;BME280;34587;48.816;9.420;2023-05-03T07:13:37;99599.72;;;21.16;42.45
48792;BME280;34587;48.816;9.420;2023-05-03T07:16:03;99600.97;;;20.52;43.26
48792;BME280;34587;48.816;9.420;2023-05-03T07:18:29;99597.91;;;19.82;44.42
48792;BME280;34587;48.816;9.420;2023-05-03T07:20:54;99593.72;;;19.98;43.08
48792;BME280;34587;48.816;9.420;2023-05-03T07:23:20;99590.19;;;18.67;47.34
48792;BME280;34587;48.816;9.420;2023-05-03T07:25:46;99573.66;;;21.10;42.36
48792;BME280;34587;48.816;9.420;2023-05-03T07:28:11;99573.34;;;22.38;39.54
48792;BME280;34587;48.816;9.420;2023-05-03T07:30:37;99577.06;;;20.76;42.10
48792;BME280;34587;48.816;9.420;2023-05-03T07:33:02;99576.53;;;21.59;40.86
48792;BME280;34587;48.816;9.420;2023-05-03T07:35:28;99574.72;;;21.94;39.50
48792;BME280;34587;48.816;9.420;2023-05-03T07:37:54;99573.13;;;21.74;40.21
48792;BME280;34587;48.816;9.420;2023-05-03T07:40:20;99571.72;;;22.02;39.87
48792;BME280;34587;48.816;9.420;2023-05-03T07:42:46;99568.00;;;23.34;37.22
48792;BME280;34587;48.816;9.420;2023-05-03T07:45:11;99567.00;;;23.37;36.99
48792;BME280;34587;48.816;9.420;2023-05-03T07:47:37;99571.84;;;21.29;39.87
48792;BME280;34587;48.816;9.420;2023-05-03T07:50:04;99567.38;;;23.45;36.64
48792;BME280;34587;48.816;9.420;2023-05-03T07:52:35;99562.69;;;24.53;35.04
48792;BME280;34587;48.816;9.420;2023-05-03T07:55:01;99563.41;;;24.69;34.90
48792;BME280;34587;48.816;9.420;2023-05-03T07:57:27;99565.56;;;25.18;34.55
48792;BME280;34587;48.816;9.420;2023-05-03T07:59:53;99561.75;;;25.49;33.15
48792;BME280;34587;48.816;9.420;2023-05-03T08:02:18;99564.72;;;24.76;34.57
48792;BME280;34587;48.816;9.420;2023-05-03T08:04:43;99566.50;;;24.90;34.14
48792;BME280;34587;48.816;9.420;2023-05-03T08:07:09;99561.81;;;24.94;33.24
48792;BME280;34587;48.816;9.420;2023-05-03T08:09:34;99560.91;;;25.61;32.92
48792;BME280;34587;48.816;9.420;2023-05-03T08:12:00;99572.09;;;22.94;36.57
48792;BME280;34587;48.816;9.420;2023-05-03T08:14:26;99560.44;;;23.88;35.34
48792;BME280;34587;48.816;9.420;2023-05-03T08:16:52;99553.38;;;25.01;34.69
48792;BME280;34587;48.816;9.420;2023-05-03T08:19:17;99558.63;;;25.95;33.01
48792;BME280;34587;48.816;9.420;2023-05-03T08:21:43;99558.13;;;24.41;34.80
48792;BME280;34587;48.816;9.420;2023-05-03T08:24:08;99558.53;;;23.46;36.17
48792;BME280;34587;48.816;9.420;2023-05-03T08:26:34;99557.34;;;25.75;33.32
48792;BME280;34587;48.816;9.420;2023-05-03T08:29:00;99555.47;;;25.50;33.90
48792;BME280;34587;48.816;9.420;2023-05-03T08:31:28;99563.25;;;24.44;34.37
48792;BME280;34587;48.816;9.420;2023-05-03T08:33:54;99565.44;;;24.37;34.56
48792;BME280;34587;48.816;9.420;2023-05-03T08:36:19;99568.13;;;24.64;34.08
48792;BME280;34587;48.816;9.420;2023-05-03T08:38:45;99576.84;;;24.23;34.20
48792;BME280;34587;48.816;9.420;2023-05-03T08:41:20;99571.00;;;23.28;37.03
48792;BME280;34587;48.816;9.420;2023-05-03T08:43:51;99561.09;;;24.92;34.39
48792;BME280;34587;48.816;9.420;2023-05-03T08:46:18;99571.50;;;25.88;32.41
48792;BME280;34587;48.816;9.420;2023-05-03T08:48:47;99565.56;;;25.98;33.18
48792;BME280;34587;48.816;9.420;2023-05-03T08:51:13;99563.31;;;25.52;33.46
48792;BME280;34587;48.816;9.420;2023-05-03T08:53:38;99563.69;;;25.73;32.56
48792;BME280;34587;48.816;9.420;2023-05-03T08:56:06;99580.25;;;22.73;37.23
48792;BME280;34587;48.816;9.420;2023-05-03T08:58:34;99574.34;;;20.19;43.21
48792;BME280;34587;48.816;9.420;2023-05-03T09:01:07;99574.41;;;20.18;43.69
48792;BME280;34587;48.816;9.420;2023-05-03T09:03:34;99572.22;;;20.27;43.84
48792;BME280;34587;48.816;9.420;2023-05-03T09:05:59;99576.47;;;21.43;40.78
48792;BME280;34587;48.816;9.420;2023-05-03T09:08:28;99582.78;;;19.66;44.78
48792;BME280;34587;48.816;9.420;2023-05-03T09:10:54;99560.03;;;23.20;39.32
48792;BME280;34587;48.816;9.420;2023-05-03T09:13:21;99571.31;;;24.42;34.91
48792;BME280;34587;48.816;9.420;2023-05-03T09:15:54;99570.56;;;23.81;36.15
48792;BME280;34587;48.816;9.420;2023-05-03T09:18:20;99571.31;;;24.83;33.93
48792;BME280;34587;48.816;9.420;2023-05-03T09:20:47;99569.13;;;23.30;37.24
48792;BME280;34587;48.816;9.420;2023-05-03T09:23:28;99576.66;;;22.08;39.31
48792;BME280;34587;48.816;9.420;2023-05-03T09:25:53;99579.31;;;21.56;40.17
48792;BME280;34587;48.816;9.420;2023-05-03T09:28:20;99579.72;;;22.82;39.01
48792;BME280;34587;48.816;9.420;2023-05-03T09:30:47;99575.00;;;21.72;40.86
48792;BME280;34587;48.816;9.420;2023-05-03T09:33:13;99575.63;;;22.61;38.85
48792;BME280;34587;48.816;9.420;2023-05-03T09:36:00;99567.56;;;24.30;36.12
48792;BME280;34587;48.816;9.420;2023-05-03T09:38:30;99565.56;;;25.98;32.68
48792;BME280;34587;48.816;9.420;2023-05-03T09:40:56;99562.59;;;26.02;32.69
48792;BME280;34587;48.816;9.420;2023-05-03T09:43:22;99564.41;;;25.62;32.90
48792;BME280;34587;48.816;9.420;2023-05-03T09:45:47;99561.13;;;24.20;35.42
48792;BME280;34587;48.816;9.420;2023-05-03T09:48:13;99560.66;;;25.79;34.20
48792;BME280;34587;48.816;9.420;2023-05-03T09:50:38;99558.53;;;26.22;32.82
48792;BME280;34587;48.816;9.420;2023-05-03T09:53:06;99549.31;;;26.77;31.62
48792;BME280;34587;48.816;9.420;2023-05-03T09:55:36;99554.06;;;26.48;32.58
48792;BME280;34587;48.816;9.420;2023-05-03T09:58:03;99548.34;;;23.84;37.44
48792;BME280;34587;48.816;9.420;2023-05-03T10:00:39;99550.31;;;24.80;35.01
48792;BME280;34587;48.816;9.420;2023-05-03T10:03:16;99555.09;;;24.04;35.90
48792;BME280;34587;48.816;9.420;2023-05-03T10:05:46;99551.97;;;24.96;33.95
48792;BME280;34587;48.816;9.420;2023-05-03T10:08:19;99555.88;;;24.90;34.39
48792;BME280;34587;48.816;9.420;2023-05-03T10:10:48;99569.47;;;22.45;37.58
48792;BME280;34587;48.816;9.420;2023-05-03T10:13:16;99548.63;;;24.22;35.01
48792;BME280;34587;48.816;9.420;2023-05-03T10:15:42;99533.84;;;25.69;34.48
48792;BME280;34587;48.816;9.420;2023-05-03T10:18:12;99526.47;;;26.99;32.79
48792;BME280;34587;48.816;9.420;2023-05-03T10:20:43;99539.34;;;24.99;34.86
48792;BME280;34587;48.816;9.420;2023-05-03T10:23:11;99541.75;;;25.96;32.61
48792;BME280;34587;48.816;9.420;2023-05-03T10:25:38;99536.34;;;24.07;35.58
48792;BME280;34587;48.816;9.420;2023-05-03T10:28:08;99528.28;;;25.34;33.73
48792;BME280;34587;48.816;9.420;2023-05-03T10:30:37;99524.19;;;24.74;35.38
48792;BME280;34587;48.816;9.420;2023-05-03T10:35:39;99523.41;;;24.86;34.20
48792;BME280;34587;48.816;9.420;2023-05-03T10:38:15;99519.38;;;27.34;31.34
48792;BME280;34587;48.816;9.420;2023-05-03T10:40:42;99513.94;;;28.94;29.27
48792;BME280;34587;48.816;9.420;2023-05-03T10:46:03;99506.09;;;29.14;28.99
48792;BME280;34587;48.816;9.420;2023-05-03T10:48:29;99520.47;;;25.58;33.00
48792;BME280;34587;48.816;9.420;2023-05-03T10:50:56;99521.53;;;25.68;32.55
48792;BME280;34587;48.816;9.420;2023-05-03T10:53:38;99514.09;;;26.50;32.24
48792;BME280;34587;48.816;9.420;2023-05-03T10:56:07;99523.69;;;23.23;35.88
48792;BME280;34587;48.816;9.420;2023-05-03T10:58:43;99512.56;;;27.19;31.96
48792;BME280;34587;48.816;9.420;2023-05-03T11:01:11;99509.59;;;28.71;29.13
48792;BME280;34587;48.816;9.420;2023-05-03T11:06:35;99503.81;;;30.44;26.01
48792;BME280;34587;48.816;9.420;2023-05-03T11:09:02;99497.28;;;28.59;27.00
48792;BME280;34587;48.816;9.420;2023-05-03T11:11:28;99496.47;;;28.79;27.59
48792;BME280;34587;48.816;9.420;2023-05-03T11:13:55;99501.50;;;25.89;29.80
48792;BME280;34587;48.816;9.420;2023-05-03T11:16:20;99496.66;;;24.77;31.79
48792;BME280;34587;48.816;9.420;2023-05-03T11:18:46;99498.31;;;24.36;33.01
48792;BME280;34587;48.816;9.420;2023-05-03T11:21:12;99497.06;;;25.37;32.06
48792;BME280;34587;48.816;9.420;2023-05-03T11:23:38;99495.75;;;21.91;37.97
48792;BME280;34587;48.816;9.420;2023-05-03T11:26:08;99500.44;;;20.81;39.67
48792;BME280;34587;48.816;9.420;2023-05-03T11:28:40;99490.50;;;21.04;37.59
48792;BME280;34587;48.816;9.420;2023-05-03T11:31:10;99491.66;;;21.86;37.06
48792;BME280;34587;48.816;9.420;2023-05-03T11:33:37;99473.00;;;23.90;32.47
48792;BME280;34587;48.816;9.420;2023-05-03T11:36:04;99469.78;;;24.96;30.95
48792;BME280;34587;48.816;9.420;2023-05-03T11:38:31;99470.03;;;24.78;31.28
48792;BME280;34587;48.816;9.420;2023-05-03T11:40:57;99470.91;;;24.23;31.90
48792;BME280;34587;48.816;9.420;2023-05-03T11:43:22;99454.13;;;23.51;33.99
48792;BME280;34587;48.816;9.420;2023-05-03T11:45:50;99465.94;;;24.87;32.60
48792;BME280;34587;48.816;9.420;2023-05-03T11:48:16;99467.84;;;25.12;32.54
48792;BME280;34587;48.816;9.420;2023-05-03T11:50:49;99466.19;;;24.97;31.57
48792;BME280;34587;48.816;9.420;2023-05-03T11:53:17;99468.84;;;25.62;30.81
48792;BME280;34587;48.816;9.420;2023-05-03T11:55:47;99469.88;;;23.97;32.84
48792;BME280;34587;48.816;9.420;2023-05-03T11:58:17;99456.13;;;24.75;32.48
48792;BME280;34587;48.816;9.420;2023-05-03T12:00:45;99454.47;;;24.04;31.81
48792;BME280;34587;48.816;9.420;2023-05-03T12:03:18;99467.13;;;21.84;33.54
48792;BME280;34587;48.816;9.420;2023-05-03T12:05:45;99461.50;;;22.23;32.99
48792;BME280;34587;48.816;9.420;2023-05-03T12:08:10;99456.13;;;21.42;36.77
48792;BME280;34587;48.816;9.420;2023-05-03T12:10:36;99447.81;;;21.99;36.57
48792;BME280;34587;48.816;9.420;2023-05-03T12:13:02;99456.59;;;21.33;37.13
48792;BME280;34587;48.816;9.420;2023-05-03T12:15:29;99441.72;;;20.96;36.78
48792;BME280;34587;48.816;9.420;2023-05-03T12:17:56;99440.72;;;20.07;38.77
48792;BME280;34587;48.816;9.420;2023-05-03T12:20:23;99429.59;;;20.19;38.42
48792;BME280;34587;48.816;9.420;2023-05-03T12:22:54;99428.88;;;20.90;38.60
48792;BME280;34587;48.816;9.420;2023-05-03T12:25:20;99435.63;;;20.59;36.66
48792;BME280;34587;48.816;9.420;2023-05-03T12:27:46;99425.94;;;21.30;35.11
48792;BME280;34587;48.816;9.420;2023-05-03T12:30:12;99428.41;;;21.16;37.03
48792;BME280;34587;48.816;9.420;2023-05-03T12:32:37;99432.13;;;20.40;37.03
48792;BME280;34587;48.816;9.420;2023-05-03T12:35:06;99427.72;;;20.59;35.84
48792;BME280;34587;48.816;9.420;2023-05-03T12:37:35;99427.00;;;20.74;35.48
48792;BME280;34587;48.816;9.420;2023-05-03T12:40:01;99429.63;;;20.92;35.34
48792;BME280;34587;48.816;9.420;2023-05-03T12:42:27;99420.78;;;20.93;35.30
48792;BME280;34587;48.816;9.420;2023-05-03T12:44:56;99420.81;;;21.27;35.60
48792;BME280;34587;48.816;9.420;2023-05-03T12:47:21;99415.75;;;21.91;33.39
48792;BME280;34587;48.816;9.420;2023-05-03T12:49:47;99413.19;;;22.68;33.24
48792;BME280;34587;48.816;9.420;2023-05-03T12:52:12;99413.34;;;22.65;33.01
48792;BME280;34587;48.816;9.420;2023-05-03T12:54:38;99415.41;;;22.60;31.19
48792;BME280;34587;48.816;9.420;2023-05-03T12:57:03;99415.63;;;22.25;32.21
48792;BME280;34587;48.816;9.420;2023-05-03T12:59:29;99406.50;;;22.93;32.46
48792;BME280;34587;48.816;9.420;2023-05-03T13:01:54;99406.66;;;22.12;32.62
48792;BME280;34587;48.816;9.420;2023-05-03T13:04:20;99412.09;;;21.60;33.94
48792;BME280;34587;48.816;9.420;2023-05-03T13:06:46;99407.47;;;21.30;34.97
48792;BME280;34587;48.816;9.420;2023-05-03T13:09:13;99400.56;;;21.94;35.03
48792;BME280;34587;48.816;9.420;2023-05-03T13:11:40;99395.00;;;22.16;32.18
48792;BME280;34587;48.816;9.420;2023-05-03T13:14:06;99399.56;;;21.97;33.79
48792;BME280;34587;48.816;9.420;2023-05-03T13:16:31;99380.31;;;22.42;31.59
48792;BME280;34587;48.816;9.420;2023-05-03T13:18:57;99389.97;;;20.95;34.73
48792;BME280;34587;48.816;9.420;2023-05-03T13:21:23;99381.28;;;21.10;34.54
48792;BME280;34587;48.816;9.420;2023-05-03T13:23:48;99378.59;;;21.78;33.69
48792;BME280;34587;48.816;9.420;2023-05-03T13:26:13;99378.94;;;21.21;34.24
48792;BME280;34587;48.816;9.420;2023-05-03T13:28:39;99381.22;;;21.62;34.41
48792;BME280;34587;48.816;9.420;2023-05-03T13:31:05;99373.94;;;21.99;32.63
48792;BME280;34587;48.816;9.420;2023-05-03T13:33:30;99376.75;;;21.29;34.34
48792;BME280;34587;48.816;9.420;2023-05-03T13:35:56;99373.97;;;20.27;33.79
48792;BME280;34587;48.816;9.420;2023-05-03T13:38:21;99367.03;;;20.07;33.74
48792;BME280;34587;48.816;9.420;2023-05-03T13:40:47;99376.50;;;19.92;35.29
48792;BME280;34587;48.816;9.420;2023-05-03T13:43:12;99369.16;;;19.99;36.00
48792;BME280;34587;48.816;9.420;2023-05-03T13:45:37;99364.53;;;20.40;36.74
48792;BME280;34587;48.816;9.420;2023-05-03T13:48:03;99365.84;;;21.02;34.70
48792;BME280;34587;48.816;9.420;2023-05-03T13:50:28;99357.69;;;21.91;33.46
48792;BME280;34587;48.816;9.420;2023-05-03T13:52:55;99357.97;;;22.64;33.65
48792;BME280;34587;48.816;9.420;2023-05-03T13:55:20;99353.44;;;22.66;32.12
48792;BME280;34587;48.816;9.420;2023-05-03T13:57:46;99349.84;;;22.05;32.97
48792;BME280;34587;48.816;9.420;2023-05-03T14:00:12;99350.94;;;21.69;32.96
48792;BME280;34587;48.816;9.420;2023-05-03T14:02:38;99359.00;;;20.46;33.40
48792;BME280;34587;48.816;9.420;2023-05-03T14:05:03;99361.78;;;20.07;33.94
48792;BME280;34587;48.816;9.420;2023-05-03T14:07:29;99359.22;;;19.87;35.75
48792;BME280;34587;48.816;9.420;2023-05-03T14:09:55;99359.78;;;19.74;35.73
48792;BME280;34587;48.816;9.420;2023-05-03T14:12:22;99345.03;;;19.51;35.82
48792;BME280;34587;48.816;9.420;2023-05-03T14:14:47;99352.25;;;19.86;34.70
48792;BME280;34587;48.816;9.420;2023-05-03T14:17:12;99354.00;;;20.59;34.03
48792;BME280;34587;48.816;9.420;2023-05-03T14:19:37;99340.19;;;21.06;31.62
48792;BME280;34587;48.816;9.420;2023-05-03T14:22:03;99344.13;;;21.32;31.51
48792;BME280;34587;48.816;9.420;2023-05-03T14:24:29;99341.25;;;21.37;31.38
48792;BME280;34587;48.816;9.420;2023-05-03T14:26:54;99330.41;;;21.74;30.78
48792;BME280;34587;48.816;9.420;2023-05-03T14:29:20;99321.75;;;21.72;30.97
48792;BME280;34587;48.816;9.420;2023-05-03T14:31:45;99326.22;;;22.19;30.47
48792;BME280;34587;48.816;9.420;2023-05-03T14:34:11;99328.25;;;21.34;31.19
48792;BME280;34587;48.816;9.420;2023-05-03T14:36:36;99333.47;;;21.00;32.12
48792;BME280;34587;48.816;9.420;2023-05-03T14:39:03;99324.81;;;20.45;33.07
48792;BME280;34587;48.816;9.420;2023-05-03T14:41:29;99321.63;;;19.85;34.59
48792;BME280;34587;48.816;9.420;2023-05-03T14:43:56;99320.84;;;19.83;33.92
48792;BME280;34587;48.816;9.420;2023-05-03T14:46:21;99325.22;;;20.37;33.43
48792;BME280;34587;48.816;9.420;2023-05-03T14:48:46;99314.81;;;20.70;32.47
48792;BME280;34587;48.816;9.420;2023-05-03T14:51:12;99301.47;;;20.91;31.92
48792;BME280;34587;48.816;9.420;2023-05-03T14:53:39;99297.03;;;21.09;32.17
48792;BME280;34587;48.816;9.420;2023-05-03T14:56:04;99290.84;;;21.25;31.20
48792;BME280;34587;48.816;9.420;2023-05-03T14:58:30;99290.00;;;21.90;31.30
48792;BME280;34587;48.816;9.420;2023-05-03T15:00:55;99288.00;;;22.09;30.34
48792;BME280;34587;48.816;9.420;2023-05-03T15:03:20;99296.75;;;21.95;30.13
48792;BME280;34587;48.816;9.420;2023-05-03T15:05:48;99295.84;;;21.95;30.76
48792;BME280;34587;48.816;9.420;2023-05-03T15:08:15;99292.28;;;21.33;31.38
48792;BME280;34587;48.816;9.420;2023-05-03T15:10:42;99299.81;;;20.55;31.89
48792;BME280;34587;48.816;9.420;2023-05-03T15:13:08;99290.13;;;21.06;31.60
48792;BME280;34587;48.816;9.420;2023-05-03T15:15:35;99298.63;;;20.61;31.85
48792;BME280;34587;48.816;9.420;2023-05-03T15:18:00;99302.25;;;20.58;31.71
48792;BME280;34587;48.816;9.420;2023-05-03T15:20:26;99302.66;;;20.50;32.38
48792;BME280;34587;48.816;9.420;2023-05-03T15:22:51;99300.94;;;20.49;30.96
48792;BME280;34587;48.816;9.420;2023-05-03T15:25:16;99304.44;;;20.67;30.92
48792;BME280;34587;48.816;9.420;2023-05-03T15:27:42;99292.03;;;20.69;30.10
48792;BME280;34587;48.816;9.420;2023-05-03T15:30:07;99292.97;;;20.86;30.38
48792;BME280;34587;48.816;9.420;2023-05-03T15:32:33;99290.84;;;21.25;29.60
48792;BME280;34587;48.816;9.420;2023-05-03T15:34:58;99289.75;;;21.29;30.61
48792;BME280;34587;48.816;9.420;2023-05-03T15:37:33;99281.50;;;21.20;32.11
48792;BME280;34587;48.816;9.420;2023-05-03T15:40:03;99284.72;;;21.09;32.19
48792;BME280;34587;48.816;9.420;2023-05-03T15:42:29;99280.16;;;21.28;31.64
48792;BME280;34587;48.816;9.420;2023-05-03T15:44:54;99286.75;;;21.04;31.15
48792;BME280;34587;48.816;9.420;2023-05-03T15:47:20;99296.09;;;20.40;31.87
48792;BME280;34587;48.816;9.420;2023-05-03T15:49:46;99292.84;;;20.35;32.12
48792;BME280;34587;48.816;9.420;2023-05-03T15:52:11;99283.53;;;20.11;31.71
48792;BME280;34587;48.816;9.420;2023-05-03T15:54:37;99286.59;;;20.38;31.81
48792;BME280;34587;48.816;9.420;2023-05-03T15:57:02;99285.25;;;20.65;31.75
48792;BME280;34587;48.816;9.420;2023-05-03T15:59:28;99292.81;;;20.89;31.21
48792;BME280;34587;48.816;9.420;2023-05-03T16:01:54;99283.50;;;20.99;31.32
48792;BME280;34587;48.816;9.420;2023-05-03T16:04:19;99288.84;;;20.45;31.37
48792;BME280;34587;48.816;9.420;2023-05-03T16:06:44;99285.13;;;19.96;31.20
48792;BME280;34587;48.816;9.420;2023-05-03T16:09:09;99281.03;;;19.90;30.79
48792;BME280;34587;48.816;9.420;2023-05-03T16:11:36;99280.66;;;19.98;30.68
48792;BME280;34587;48.816;9.420;2023-05-03T16:14:01;99277.38;;;20.12;30.42
48792;BME280;34587;48.816;9.420;2023-05-03T16:16:28;99274.50;;;20.34;30.60
48792;BME280;34587;48.816;9.420;2023-05-03T16:18:54;99270.66;;;20.41;31.90
48792;BME280;34587;48.816;9.420;2023-05-03T16:21:19;99278.22;;;20.29;32.68
48792;BME280;34587;48.816;9.420;2023-05-03T16:23:44;99277.69;;;20.23;31.80
48792;BME280;34587;48.816;9.420;2023-05-03T16:26:11;99272.25;;;20.43;32.09
48792;BME280;34587;48.816;9.420;2023-05-03T16:28:38;99268.94;;;20.40;32.68
48792;BME280;34587;48.816;9.420;2023-05-03T16:31:03;99271.50;;;20.41;33.60
48792;BME280;34587;48.816;9.420;2023-05-03T16:33:29;99266.91;;;20.45;33.47
48792;BME280;34587;48.816;9.420;2023-05-03T16:35:54;99264.59;;;20.21;33.49
48792;BME280;34587;48.816;9.420;2023-05-03T16:38:20;99269.38;;;20.13;32.96
48792;BME280;34587;48.816;9.420;2023-05-03T16:40:45;99269.38;;;20.13;33.81
48792;BME280;34587;48.816;9.420;2023-05-03T16:43:11;99268.59;;;19.94;34.38
48792;BME280;34587;48.816;9.420;2023-05-03T16:45:36;99265.81;;;19.97;34.87
48792;BME280;34587;48.816;9.420;2023-05-03T16:48:01;99265.06;;;20.12;34.07
48792;BME280;34587;48.816;9.420;2023-05-03T16:50:27;99262.06;;;20.01;34.10
48792;BME280;34587;48.816;9.420;2023-05-03T16:52:53;99264.59;;;20.21;34.10
48792;BME280;34587;48.816;9.420;2023-05-03T16:55:21;99267.44;;;19.99;34.56
48792;BME280;34587;48.816;9.420;2023-05-03T16:57:47;99268.19;;;19.65;34.48
48792;BME280;34587;48.816;9.420;2023-05-03T17:00:13;99257.13;;;19.57;35.36
48792;BME280;34587;48.816;9.420;2023-05-03T17:02:39;99267.03;;;19.52;35.23
48792;BME280;34587;48.816;9.420;2023-05-03T17:05:05;99264.53;;;19.87;34.90
48792;BME280;34587;48.816;9.420;2023-05-03T17:07:32;99254.31;;;19.81;34.44
48792;BME280;34587;48.816;9.420;2023-05-03T17:09:58;99260.06;;;20.06;34.61
48792;BME280;34587;48.816;9.420;2023-05-03T17:12:23;99263.00;;;20.36;34.14
48792;BME280;34587;48.816;9.420;2023-05-03T17:14:49;99249.75;;;20.38;33.70
48792;BME280;34587;48.816;9.420;2023-05-03T17:17:14;99254.03;;;19.49;34.87
48792;BME280;34587;48.816;9.420;2023-05-03T17:19:39;99258.28;;;19.33;36.14
48792;BME280;34587;48.816;9.420;2023-05-03T17:22:05;99254.97;;;18.90;36.45